Time;durP1;ratioP1;P1;durP2;ratioP2;P2;SDS_P1;SDS_P2;PMS_P1;PMS_P2;Temp;Humidity;BMP_temperature;BMP_pressure;BME280_temperature;BME280_humidity;BME280_pressure;Samples;Min_cycle;Max_cycle;Signal;HPM_P1;HPM_P2
2022/05/12 00:00:54;;;;;;;;;4.50;2.00;;;;;20.00;51.47;101529.72;2396895;28;45326;-82
2022/05/12 00:02:05;;;;;;;;;3.00;1.25;;;;;19.98;51.52;101530.75;2403492;28;45360;-82
2022/05/12 00:03:19;;;;;;;;;1.50;1.50;;;;;19.97;51.20;101539.72;2401808;28;46521;-81
2022/05/12 00:04:31;;;;;;;;;1.25;1.25;;;;;19.94;51.21;101539.91;2393804;28;45255;-81
2022/05/12 00:05:42;;;;;;;;;2.50;2.50;;;;;19.91;51.09;101543.63;2394016;28;45499;-81
2022/05/12 00:06:52;;;;;;;;;4.25;3.50;;;;;19.90;51.90;101539.25;2384875;28;45315;-82
2022/05/12 00:08:03;;;;;;;;;2.00;2.00;;;;;19.87;51.49;101544.75;2393173;28;46504;-81
2022/05/12 00:09:14;;;;;;;;;4.25;3.25;;;;;19.87;51.60;101542.09;2396285;28;44714;-81
2022/05/12 00:10:26;;;;;;;;;3.25;2.00;;;;;19.87;51.30;101550.97;2403063;28;45942;-81
2022/05/12 00:11:36;;;;;;;;;3.00;2.00;;;;;19.87;51.33;101547.44;2403492;28;44743;-81
2022/05/12 00:12:48;;;;;;;;;5.00;2.00;;;;;19.85;51.83;101546.66;2403281;28;45358;-81
2022/05/12 00:13:58;;;;;;;;;3.00;3.00;;;;;19.82;51.40;101544.19;2392904;28;45552;-81
2022/05/12 00:15:15;;;;;;;;;2.50;2.50;;;;;19.81;51.65;101543.31;2395708;28;45435;-81
2022/05/12 00:16:25;;;;;;;;;2.00;2.00;;;;;19.82;51.87;101545.03;2394161;28;44687;-81
2022/05/12 00:17:35;;;;;;;;;4.50;3.00;;;;;19.77;51.76;101542.66;2400297;28;45435;-81
2022/05/12 00:18:46;;;;;;;;;3.50;3.00;;;;;19.78;51.42;101549.69;2403352;28;45303;-81
2022/05/12 00:19:56;;;;;;;;;3.50;2.75;;;;;19.75;51.83;101544.56;2403290;28;45493;-81
2022/05/12 00:21:07;;;;;;;;;3.00;2.75;;;;;19.78;51.87;101548.81;2403370;28;44740;-81
2022/05/12 00:22:17;;;;;;;;;4.00;2.00;;;;;19.77;51.71;101544.44;2402891;28;45355;-81
2022/05/12 00:23:28;;;;;;;;;6.00;2.25;;;;;19.78;51.83;101547.03;2403311;28;45345;-81
2022/05/12 00:24:38;;;;;;;;;2.50;2.50;;;;;19.78;51.74;101555.00;2402518;28;46841;-81
2022/05/12 00:25:50;;;;;;;;;4.00;3.00;;;;;19.74;52.02;101553.50;2402430;28;45263;-81
2022/05/12 00:27:01;;;;;;;;;2.25;2.25;;;;;19.74;51.77;101556.16;2391531;28;47027;-81
2022/05/12 00:28:12;;;;;;;;;5.25;3.25;;;;;19.72;51.77;101550.06;2386952;28;45256;-81
2022/05/12 00:29:23;;;;;;;;;2.75;2.75;;;;;19.72;52.02;101558.06;2394892;28;45578;-81
2022/05/12 00:30:34;;;;;;;;;1.75;1.75;;;;;19.73;52.01;101554.44;2403340;28;45243;-84
2022/05/12 00:31:45;;;;;;;;;3.00;3.00;;;;;19.73;51.94;101551.75;2403006;28;45618;-84
2022/05/12 00:32:56;;;;;;;;;2.25;2.00;;;;;19.73;52.15;101556.25;2402256;28;45285;-84
2022/05/12 00:34:07;;;;;;;;;2.00;2.00;;;;;19.74;52.17;101558.81;2402426;28;47324;-84
2022/05/12 00:35:18;;;;;;;;;3.25;3.25;;;;;19.73;51.79;101554.44;2387952;28;45439;-84
2022/05/12 00:36:28;;;;;;;;;4.00;2.50;;;;;19.73;51.92;101565.09;2397743;28;45454;-84
2022/05/12 00:37:39;;;;;;;;;2.25;1.25;;;;;19.73;52.15;101565.09;2400926;28;44570;-84
2022/05/12 00:38:49;;;;;;;;;5.00;3.50;;;;;19.72;52.04;101566.06;2383625;28;46996;-83
2022/05/12 00:40:00;;;;;;;;;3.50;3.50;;;;;19.72;52.20;101566.06;2386384;28;45324;-83
2022/05/12 00:41:10;;;;;;;;;3.75;2.75;;;;;19.70;51.85;101565.31;2393660;28;46220;-83
2022/05/12 00:42:21;;;;;;;;;6.25;4.00;;;;;19.70;51.79;101567.09;2393852;28;45228;-84
2022/05/12 00:43:37;;;;;;;;;4.00;2.25;;;;;19.69;52.02;101571.56;2400169;28;45144;-85
2022/05/12 00:44:48;;;;;;;;;3.25;2.75;;;;;19.66;52.06;101569.06;2403250;28;45301;-83
2022/05/12 00:45:58;;;;;;;;;4.25;2.75;;;;;19.64;52.49;101570.97;2392798;28;47941;-83
2022/05/12 00:47:08;;;;;;;;;3.25;1.25;;;;;19.64;52.22;101571.84;2396047;28;45316;-83
2022/05/12 00:48:19;;;;;;;;;2.00;2.00;;;;;19.60;52.24;101570.31;2402373;28;46262;-81
2022/05/12 00:49:34;;;;;;;;;2.75;2.50;;;;;19.56;52.20;101572.28;2403379;28;45169;-82
2022/05/12 00:50:44;;;;;;;;;5.00;2.00;;;;;19.56;52.54;101566.09;2395390;28;45322;-82
2022/05/12 00:52:06;;;;;;;;;3.00;3.00;;;;;19.55;52.08;101578.59;2383370;28;45318;-82
2022/05/12 00:53:16;;;;;;;;;2.00;2.00;;;;;19.51;51.89;101569.03;2392079;28;46175;-82
2022/05/12 00:54:37;;;;;;;;;3.00;3.00;;;;;19.49;51.74;101578.91;2393127;28;45356;-81
2022/05/12 00:55:47;;;;;;;;;3.75;2.50;;;;;19.42;51.97;101577.56;2387986;28;45412;-81
2022/05/12 00:57:00;;;;;;;;;4.75;2.00;;;;;19.43;52.00;101589.94;2396614;28;44786;-82
2022/05/12 00:58:13;;;;;;;;;4.75;3.00;;;;;19.36;52.08;101584.09;2402317;28;45662;-82
2022/05/12 00:59:29;;;;;;;;;4.00;3.00;;;;;19.31;52.16;101576.38;2401995;28;45279;-81
2022/05/12 01:00:40;;;;;;;;;4.25;3.25;;;;;19.29;52.23;101585.38;2393670;28;45419;-82
2022/05/12 01:01:51;;;;;;;;;4.00;3.25;;;;;19.25;52.25;101584.72;2393733;28;44629;-82
2022/05/12 01:03:10;;;;;;;;;5.25;4.00;;;;;19.20;52.38;101597.44;2395504;28;45433;-81
2022/05/12 01:04:22;;;;;;;;;2.75;2.75;;;;;19.18;52.54;101599.34;2403166;28;44584;-82
2022/05/12 01:05:32;;;;;;;;;5.00;3.25;;;;;19.11;52.54;101596.97;2403019;28;45403;-82
2022/05/12 01:06:43;;;;;;;;;4.25;2.50;;;;;19.08;52.21;101594.50;2394877;28;45187;-82
2022/05/12 01:07:57;;;;;;;;;3.00;3.00;;;;;19.08;52.85;101599.81;2403048;28;45214;-82
2022/05/12 01:09:08;;;;;;;;;3.00;3.00;;;;;19.09;52.27;101603.31;2395647;28;45312;-82
2022/05/12 01:10:18;;;;;;;;;3.50;2.50;;;;;19.07;52.79;101592.75;2393391;28;45512;-81
2022/05/12 01:11:29;;;;;;;;;3.00;2.00;;;;;19.10;53.29;101600.59;2393576;28;45294;-82
2022/05/12 01:12:43;;;;;;;;;4.50;3.00;;;;;19.06;52.47;101596.34;2393553;28;45247;-81
2022/05/12 01:14:00;;;;;;;;;4.00;3.00;;;;;19.05;52.73;101599.13;2400229;28;45327;-81
2022/05/12 01:15:12;;;;;;;;;4.00;3.50;;;;;19.04;52.91;101608.06;2401926;28;45528;-83
2022/05/12 01:16:42;;;;;;;;;3.75;3.75;;;;;18.95;52.46;101598.78;2403204;28;45161;-84
2022/05/12 01:18:10;;;;;;;;;2.50;2.50;;;;;18.95;53.05;101598.78;2403026;28;46340;-84
2022/05/12 01:19:28;;;;;;;;;3.25;3.25;;;;;18.93;52.72;101603.31;2402261;28;44700;-83
2022/05/12 01:20:39;;;;;;;;;2.00;2.00;;;;;18.93;52.74;101606.00;2402510;28;46418;-83
2022/05/12 01:21:51;;;;;;;;;3.00;3.00;;;;;18.94;52.73;101607.72;2402375;28;44716;-83
2022/05/12 01:23:23;;;;;;;;;5.25;3.00;;;;;18.92;53.08;101605.13;2402868;28;47419;-83
2022/05/12 01:24:37;;;;;;;;;4.50;3.00;;;;;18.95;52.78;101601.44;2393522;28;44666;-83
2022/05/12 01:25:48;;;;;;;;;4.50;3.75;;;;;18.91;52.72;101602.56;2394073;28;45455;-84
2022/05/12 01:27:19;;;;;;;;;4.25;3.00;;;;;18.92;52.92;101604.25;2394851;28;45448;-83
2022/05/12 01:28:30;;;;;;;;;4.25;2.50;;;;;18.92;52.49;101609.59;2393276;28;45659;-80
2022/05/12 01:29:40;;;;;;;;;3.50;2.75;;;;;18.89;53.11;101600.81;2387256;28;45187;-80
2022/05/12 01:30:51;;;;;;;;;5.50;3.00;;;;;18.89;52.87;101608.81;2394874;28;46419;-80
2022/05/12 01:32:01;;;;;;;;;3.25;3.00;;;;;18.92;52.66;101614.91;2396637;28;45416;-81
2022/05/12 01:33:11;;;;;;;;;5.75;4.00;;;;;18.93;52.66;101614.84;2403813;28;46554;-82
2022/05/12 01:34:23;;;;;;;;;8.00;3.00;;;;;18.93;52.97;101611.31;2400115;28;44674;-81
2022/05/12 01:35:33;;;;;;;;;5.50;4.00;;;;;18.95;52.57;101614.75;2399639;28;46284;-82
2022/05/12 01:36:44;;;;;;;;;3.00;3.00;;;;;18.93;52.45;101617.50;2393202;28;45172;-81
2022/05/12 01:37:54;;;;;;;;;3.25;3.00;;;;;18.92;52.85;101613.13;2383314;28;47751;-82
2022/05/12 01:39:07;;;;;;;;;3.75;3.00;;;;;18.91;52.44;101613.22;2386106;28;45327;-83
2022/05/12 01:40:22;;;;;;;;;3.50;2.25;;;;;18.92;52.53;101605.13;2393218;28;45414;-82
2022/05/12 01:41:32;;;;;;;;;5.00;3.00;;;;;18.92;53.01;101609.59;2393478;28;45172;-82
2022/05/12 01:42:43;;;;;;;;;4.00;3.75;;;;;18.92;53.04;101614.91;2393165;28;45260;-83
2022/05/12 01:43:53;;;;;;;;;3.50;3.00;;;;;18.92;52.45;101612.25;2393426;28;44568;-83
2022/05/12 01:45:06;;;;;;;;;5.50;4.25;;;;;18.94;52.55;101613.88;2393309;28;45599;-83
2022/05/12 01:46:16;;;;;;;;;5.00;3.00;;;;;18.95;52.97;101612.09;2397665;28;45409;-82
2022/05/12 01:47:27;;;;;;;;;1.50;1.50;;;;;18.98;52.64;101619.91;2402647;28;45389;-83
2022/05/12 01:48:38;;;;;;;;;4.00;2.75;;;;;18.99;52.94;101627.81;2402851;28;45375;-82
2022/05/12 01:49:48;;;;;;;;;6.00;3.00;;;;;18.96;52.71;101621.81;2397425;28;45397;-83
2022/05/12 01:50:59;;;;;;;;;6.00;4.25;;;;;18.97;52.49;101620.84;2402791;28;45249;-83
2022/05/12 01:52:10;;;;;;;;;4.00;2.00;;;;;18.97;52.79;101618.19;2402371;28;46577;-82
2022/05/12 01:53:20;;;;;;;;;3.25;3.25;;;;;18.99;52.84;101625.16;2402532;28;45238;-83
2022/05/12 01:54:31;;;;;;;;;4.00;2.00;;;;;18.98;53.05;101619.91;2400213;28;45484;-83
2022/05/12 01:55:43;;;;;;;;;6.50;3.25;;;;;19.00;52.72;101628.69;2393318;28;45259;-82
2022/05/12 01:56:53;;;;;;;;;6.00;3.25;;;;;19.00;52.84;101629.56;2400879;28;45437;-83
2022/05/12 01:58:05;;;;;;;;;5.00;3.25;;;;;19.04;52.63;101629.38;2402758;28;44973;-82
2022/05/12 01:59:18;;;;;;;;;3.50;3.00;;;;;19.01;52.66;101627.75;2402643;28;45440;-82
2022/05/12 02:00:30;;;;;;;;;6.50;3.75;;;;;19.01;52.44;101633.06;2402348;28;45345;-82
2022/05/12 02:01:40;;;;;;;;;2.75;1.75;;;;;19.00;52.85;101629.56;2402603;28;46131;-82
2022/05/12 02:02:51;;;;;;;;;4.50;4.50;;;;;19.02;52.79;101637.44;2400653;28;45232;-82
2022/05/12 02:04:02;;;;;;;;;4.75;4.00;;;;;18.98;52.83;101635.91;2393205;28;46369;-82
2022/05/12 02:05:13;;;;;;;;;8.50;5.50;;;;;19.00;52.84;101639.34;2400997;28;45713;-82
2022/05/12 02:06:23;;;;;;;;;4.50;3.75;;;;;18.98;53.17;101643.91;2402305;28;45434;-82
2022/05/12 02:07:34;;;;;;;;;4.00;3.00;;;;;18.96;52.26;101644.00;2401677;28;45279;-82
2022/05/12 02:08:44;;;;;;;;;9.00;3.75;;;;;18.95;53.20;101644.91;2393193;28;45373;-82
2022/05/12 02:09:54;;;;;;;;;3.00;3.00;;;;;18.93;52.97;101638.81;2395154;28;45462;-82
2022/05/12 02:11:05;;;;;;;;;3.75;3.00;;;;;18.96;52.26;101659.09;2402219;28;45429;-81
2022/05/12 02:12:16;;;;;;;;;3.00;3.00;;;;;18.90;53.28;101649.63;2402599;28;45271;-82
2022/05/12 02:13:27;;;;;;;;;4.00;3.00;;;;;18.87;52.85;101661.31;2401728;28;45644;-82
2022/05/12 02:14:37;;;;;;;;;2.00;2.00;;;;;18.86;53.23;101662.28;2399703;28;44850;-82
2022/05/12 02:15:48;;;;;;;;;4.25;3.75;;;;;18.83;52.85;101665.09;2392992;28;45434;-82
2022/05/12 02:16:58;;;;;;;;;3.50;3.25;;;;;18.83;52.91;101658.91;2393163;28;45330;-85
2022/05/12 02:18:09;;;;;;;;;4.00;2.25;;;;;18.78;53.37;101656.47;2393020;28;45357;-85
2022/05/12 02:19:20;;;;;;;;;5.25;4.75;;;;;18.76;52.83;101667.22;2393169;28;45236;-86
2022/05/12 02:20:30;;;;;;;;;6.25;3.00;;;;;18.76;52.94;101661.03;2402304;28;45366;-85
2022/05/12 02:21:41;;;;;;;;;5.00;3.50;;;;;18.76;53.41;101664.56;2402292;28;45282;-85
2022/05/12 02:22:51;;;;;;;;;4.75;2.25;;;;;18.74;52.91;101661.09;2401709;28;45608;-86
2022/05/12 02:24:02;;;;;;;;;3.25;2.50;;;;;18.74;53.28;101663.75;2391660;28;45482;-82
2022/05/12 02:25:12;;;;;;;;;5.50;3.00;;;;;18.76;52.91;101667.22;2390039;28;46191;-81
2022/05/12 02:26:24;;;;;;;;;3.25;3.25;;;;;18.74;53.04;101662.94;2397185;28;45175;-80
2022/05/12 02:27:35;;;;;;;;;4.75;3.00;;;;;18.76;53.07;101671.69;2403905;28;46091;-80
2022/05/12 02:28:46;;;;;;;;;4.00;3.25;;;;;18.73;52.83;101677.16;2404020;28;45438;-80
2022/05/12 02:29:56;;;;;;;;;8.25;4.00;;;;;18.69;53.03;101680.94;2400219;28;46203;-80
2022/05/12 02:31:07;;;;;;;;;2.75;2.75;;;;;18.68;53.09;101677.41;2403773;28;44790;-80
2022/05/12 02:32:17;;;;;;;;;4.25;3.00;;;;;18.64;52.99;101673.19;2398190;28;45381;-80
2022/05/12 02:33:28;;;;;;;;;6.00;4.00;;;;;18.63;53.18;101677.66;2400018;28;45341;-80
2022/05/12 02:34:38;;;;;;;;;4.25;4.25;;;;;18.65;52.91;101682.88;2397300;28;46313;-80
2022/05/12 02:35:48;;;;;;;;;5.50;2.50;;;;;18.63;53.12;101685.66;2404267;28;45241;-80
2022/05/12 02:37:01;;;;;;;;;3.00;3.00;;;;;18.62;52.88;101683.91;2396791;28;45280;-79
2022/05/12 02:38:12;;;;;;;;;2.25;2.25;;;;;18.60;52.70;101690.25;2394771;28;44639;-80
2022/05/12 02:39:22;;;;;;;;;3.00;3.00;;;;;18.57;52.48;101685.94;2394549;28;46476;-80
2022/05/12 02:40:32;;;;;;;;;4.00;2.25;;;;;18.56;52.71;101684.25;2384690;28;45262;-81
2022/05/12 02:41:43;;;;;;;;;2.00;2.00;;;;;18.57;52.64;101691.28;2390366;28;45372;-81
2022/05/12 02:42:53;;;;;;;;;4.50;3.75;;;;;18.52;52.64;101698.66;2398262;28;45151;-81
2022/05/12 02:44:04;;;;;;;;;2.75;2.00;;;;;18.50;52.28;101690.75;2403540;28;45278;-81
2022/05/12 02:45:15;;;;;;;;;4.50;2.25;;;;;18.49;52.57;101702.34;2402782;28;44743;-81
2022/05/12 02:46:25;;;;;;;;;2.75;2.25;;;;;18.47;52.56;101690.88;2403881;28;45392;-81
2022/05/12 02:47:36;;;;;;;;;5.00;2.25;;;;;18.49;53.01;101696.16;2393996;28;45271;-81
2022/05/12 02:48:47;;;;;;;;;2.25;2.00;;;;;18.47;52.39;101693.56;2396812;28;45320;-81
2022/05/12 02:49:58;;;;;;;;;3.50;2.00;;;;;18.46;52.42;101685.66;2404011;28;44782;-81
2022/05/12 02:51:08;;;;;;;;;4.00;2.00;;;;;18.45;52.43;101695.44;2403625;28;46522;-81
2022/05/12 02:52:19;;;;;;;;;2.75;1.25;;;;;18.42;51.56;101690.28;2402243;28;45208;-83
2022/05/12 02:53:30;;;;;;;;;4.50;1.25;;;;;18.42;51.17;101704.44;2402254;28;45390;-83
2022/05/12 02:54:40;;;;;;;;;1.25;1.00;;;;;18.33;50.52;101688.94;2390122;28;44630;-82
2022/05/12 02:55:50;;;;;;;;;4.00;1.25;;;;;18.31;50.85;101696.16;2377690;28;47009;-82
2022/05/12 02:57:02;;;;;;;;;2.00;1.00;;;;;18.29;50.39;101698.03;2393397;28;45352;-83
2022/05/12 02:58:13;;;;;;;;;2.00;2.00;;;;;18.26;50.60;101699.03;2393696;28;48035;-83
2022/05/12 02:59:24;;;;;;;;;2.00;2.00;;;;;18.27;50.24;101702.56;2396930;28;45461;-82
2022/05/12 03:00:35;;;;;;;;;2.00;1.00;;;;;18.25;50.01;101704.47;2403722;28;46261;-82
2022/05/12 03:01:45;;;;;;;;;1.25;1.25;;;;;18.22;50.25;101702.81;2403287;28;45283;-81
2022/05/12 03:02:56;;;;;;;;;4.00;1.00;;;;;18.19;49.85;101708.25;2393449;28;48031;-81
2022/05/12 03:04:06;;;;;;;;;1.00;1.00;;;;;18.19;49.83;101708.25;2396711;28;44807;-81
2022/05/12 03:05:16;;;;;;;;;3.75;1.50;;;;;18.18;49.56;101702.06;2393019;28;48023;-81
2022/05/12 03:06:27;;;;;;;;;1.25;1.00;;;;;18.16;49.44;101708.38;2386674;28;44760;-83
2022/05/12 03:07:38;;;;;;;;;3.50;1.25;;;;;18.13;49.68;101708.53;2396480;28;46222;-83
2022/05/12 03:08:48;;;;;;;;;4.00;0.50;;;;;18.08;49.96;101700.78;2393834;28;45390;-83
2022/05/12 03:09:59;;;;;;;;;0.25;0.25;;;;;18.05;49.87;101711.59;2396273;28;45515;-83
2022/05/12 03:11:09;;;;;;;;;2.00;0.75;;;;;18.03;49.63;101711.66;2403903;28;44581;-81
2022/05/12 03:12:19;;;;;;;;;1.25;1.00;;;;;18.04;49.68;101716.06;2403287;28;46579;-82
2022/05/12 03:13:31;;;;;;;;;0.25;0.25;;;;;18.06;49.54;101721.28;2384618;28;45293;-81
2022/05/12 03:14:41;;;;;;;;;3.00;1.00;;;;;18.06;49.45;101715.97;2389764;28;47220;-86
2022/05/12 03:15:52;;;;;;;;;3.75;2.50;;;;;18.04;49.70;101716.06;2393729;28;45204;-85
2022/05/12 03:17:03;;;;;;;;;2.25;1.00;;;;;18.00;49.63;101718.00;2396565;28;45324;-85
2022/05/12 03:18:13;;;;;;;;;2.00;1.00;;;;;17.96;49.73;101719.09;2395108;28;45228;-84
2022/05/12 03:19:25;;;;;;;;;1.75;1.75;;;;;17.92;50.16;101714.88;2388647;28;47281;-80
2022/05/12 03:20:35;;;;;;;;;2.00;1.00;;;;;17.93;50.28;101723.69;2396852;28;44696;-81
2022/05/12 03:21:46;;;;;;;;;4.75;1.25;;;;;17.91;50.29;101721.09;2403331;28;45303;-81
2022/05/12 03:22:57;;;;;;;;;2.00;1.00;;;;;17.90;49.99;101718.53;2400459;28;45423;-83
2022/05/12 03:24:09;;;;;;;;;3.00;1.50;;;;;17.90;49.94;101715.88;2403750;28;45347;-83
2022/05/12 03:25:20;;;;;;;;;0.50;0.50;;;;;17.91;50.59;101723.75;2393130;28;45436;-84
2022/05/12 03:26:31;;;;;;;;;4.00;1.00;;;;;17.91;50.38;101717.56;2395470;28;46608;-84
2022/05/12 03:27:43;;;;;;;;;3.00;2.00;;;;;17.95;50.09;101719.16;2396029;28;44602;-83
2022/05/12 03:28:53;;;;;;;;;1.00;1.00;;;;;17.96;50.62;101718.22;2403624;28;45177;-83
2022/05/12 03:30:07;;;;;;;;;4.75;1.00;;;;;18.00;50.69;101727.78;2395365;28;45450;-83
2022/05/12 03:31:18;;;;;;;;;1.75;1.75;;;;;17.98;50.41;101716.34;2394049;28;46093;-83
2022/05/12 03:32:28;;;;;;;;;1.50;1.00;;;;;17.98;50.71;101719.00;2384283;28;44802;-84
2022/05/12 03:33:39;;;;;;;;;9.25;2.00;;;;;17.99;50.96;101721.59;2399451;28;45332;-84
2022/05/12 03:34:50;;;;;;;;;0.00;0.00;;;;;17.99;50.58;101734.91;2397787;28;45233;-84
2022/05/12 03:36:00;;;;;;;;;2.75;1.00;;;;;17.97;51.11;101723.47;2392833;28;47068;-85
2022/05/12 03:37:11;;;;;;;;;2.75;2.00;;;;;17.94;50.64;101726.28;2386527;28;44656;-84
2022/05/12 03:38:21;;;;;;;;;2.00;2.00;;;;;17.93;51.19;101729.88;2392374;28;46112;-84
2022/05/12 03:39:32;;;;;;;;;1.75;1.50;;;;;17.94;51.04;101731.59;2399909;28;45153;-84
2022/05/12 03:40:43;;;;;;;;;1.00;1.00;;;;;17.98;51.29;101727.84;2394092;28;46194;-84
2022/05/12 03:41:53;;;;;;;;;4.00;2.00;;;;;17.98;50.94;101727.84;2397471;28;44676;-85
2022/05/12 03:43:03;;;;;;;;;1.00;1.00;;;;;18.02;51.06;101727.69;2403014;28;45306;-85
2022/05/12 03:45:43;;;;;;;;;1.50;1.50;;;;;18.05;51.13;101738.19;2400438;28;45350;-84
2022/05/12 03:46:54;;;;;;;;;3.00;2.00;;;;;18.02;50.92;101728.56;2403450;28;45058;-83
2022/05/12 03:48:04;;;;;;;;;1.50;1.50;;;;;17.99;50.75;101724.25;2403251;28;45461;-83
2022/05/12 03:49:15;;;;;;;;;1.25;0.75;;;;;17.97;51.13;101726.13;2403675;28;45473;-84
2022/05/12 03:50:27;;;;;;;;;2.00;2.00;;;;;17.95;50.69;101725.31;2395027;28;46394;-84
2022/05/12 03:51:37;;;;;;;;;1.00;1.00;;;;;17.99;50.81;101723.41;2393785;28;45441;-84
2022/05/12 03:52:49;;;;;;;;;6.75;2.00;;;;;17.98;51.07;101724.31;2384659;28;47802;-85
2022/05/12 03:54:01;;;;;;;;;1.00;1.00;;;;;17.98;50.46;101722.53;2393549;28;44565;-84
2022/05/12 03:55:13;;;;;;;;;2.75;1.50;;;;;17.97;50.65;101719.94;2389614;28;47947;-85
2022/05/12 03:56:23;;;;;;;;;5.25;1.25;;;;;17.97;50.73;101719.94;2396564;28;45244;-83
2022/05/12 03:57:34;;;;;;;;;0.00;0.00;;;;;17.98;50.81;101722.53;2384376;28;47644;-83
2022/05/12 03:58:44;;;;;;;;;3.75;1.00;;;;;17.97;50.87;101717.28;2387063;28;45436;-83
2022/05/12 03:59:55;;;;;;;;;1.50;1.50;;;;;17.98;50.65;101722.53;2394492;28;45517;-83
2022/05/12 04:01:06;;;;;;;;;1.00;1.00;;;;;17.99;50.78;101723.41;2403622;28;45317;-83
2022/05/12 04:02:18;;;;;;;;;0.75;0.75;;;;;17.99;50.68;101726.91;2403299;28;45656;-83
2022/05/12 04:03:29;;;;;;;;;1.75;1.00;;;;;18.01;50.51;101726.84;2403538;28;45459;-83
2022/05/12 04:04:43;;;;;;;;;1.25;1.25;;;;;18.03;50.60;101726.75;2393372;28;46847;-83
2022/05/12 04:05:56;;;;;;;;;3.00;2.00;;;;;17.99;50.47;101724.25;2386969;28;45189;-83
2022/05/12 04:07:07;;;;;;;;;2.00;2.00;;;;;18.01;50.85;101726.84;2386775;28;45441;-83
2022/05/12 04:08:18;;;;;;;;;6.25;3.00;;;;;18.01;50.59;101729.50;2394138;28;45426;-83
2022/05/12 04:09:28;;;;;;;;;0.50;0.50;;;;;18.00;50.50;101730.44;2393611;28;45396;-83
2022/05/12 04:10:39;;;;;;;;;2.00;1.00;;;;;18.03;50.22;101734.72;2399103;28;45417;-83
2022/05/12 04:11:49;;;;;;;;;3.00;1.50;;;;;18.02;50.63;101733.03;2403188;28;45219;-82
2022/05/12 04:12:59;;;;;;;;;1.00;1.00;;;;;18.00;50.35;101733.94;2403544;28;45236;-85
2022/05/12 04:14:10;;;;;;;;;2.25;1.00;;;;;17.99;50.39;101734.91;2403230;28;46228;-85
2022/05/12 04:15:21;;;;;;;;;0.75;0.75;;;;;18.02;50.66;101741.88;2397382;28;45274;-84
2022/05/12 04:16:32;;;;;;;;;1.00;0.00;;;;;17.99;50.66;101742.88;2394004;28;46463;-85
2022/05/12 04:17:43;;;;;;;;;2.00;1.25;;;;;17.97;50.24;101747.41;2394064;28;45269;-84
2022/05/12 04:18:53;;;;;;;;;2.00;0.75;;;;;17.96;50.27;101747.47;2393846;28;46350;-83
2022/05/12 04:20:06;;;;;;;;;1.00;1.00;;;;;17.96;50.72;101745.69;2394019;28;44739;-81
2022/05/12 04:21:16;;;;;;;;;2.75;1.00;;;;;17.91;50.34;101742.38;2398676;28;45578;-81
2022/05/12 04:22:27;;;;;;;;;1.00;1.00;;;;;17.88;50.57;101739.84;2401470;28;45350;-81
2022/05/12 04:23:38;;;;;;;;;4.00;2.00;;;;;17.92;50.51;101754.75;2402591;28;45412;-81
2022/05/12 04:24:48;;;;;;;;;3.75;1.50;;;;;17.86;50.72;101750.59;2403183;28;45158;-81
2022/05/12 04:25:58;;;;;;;;;2.00;1.50;;;;;17.81;50.77;101743.75;2402297;28;45525;-81
2022/05/12 04:27:09;;;;;;;;;2.00;1.00;;;;;17.81;51.05;101757.03;2403369;28;45405;-81
2022/05/12 04:28:20;;;;;;;;;3.25;2.00;;;;;17.80;50.99;101755.34;2395487;28;45265;-81
2022/05/12 04:29:30;;;;;;;;;2.25;2.00;;;;;17.80;50.85;101755.34;2393950;28;44698;-81
2022/05/12 04:30:40;;;;;;;;;1.00;1.00;;;;;17.80;50.35;101750.03;2394293;28;45539;-83
2022/05/12 04:31:51;;;;;;;;;2.00;1.00;;;;;17.76;50.53;101742.19;2403371;28;45239;-82
2022/05/12 04:35:59;;;;;;;;;2.75;1.50;;;;;17.71;50.92;101753.97;2398897;28;44920;-83
2022/05/12 04:37:10;;;;;;;;;2.25;2.00;;;;;17.71;51.34;101756.63;2403322;28;44554;-83
2022/05/12 04:38:20;;;;;;;;;3.25;1.00;;;;;17.70;51.27;101754.91;2392764;28;46894;-83
2022/05/12 04:39:31;;;;;;;;;2.50;1.00;;;;;17.68;50.95;101760.28;2395906;28;45264;-84
2022/05/12 04:40:42;;;;;;;;;2.00;2.00;;;;;17.71;51.33;101761.94;2403026;28;45429;-85
2022/05/12 04:41:53;;;;;;;;;1.00;1.00;;;;;17.74;51.34;101767.13;2403377;28;45163;-83
2022/05/12 04:43:03;;;;;;;;;4.50;1.00;;;;;17.71;51.21;101760.16;2403049;28;46340;-84
2022/05/12 04:44:14;;;;;;;;;4.00;1.00;;;;;17.73;51.01;101760.09;2400697;28;45207;-85
2022/05/12 04:45:27;;;;;;;;;1.00;1.00;;;;;17.73;51.05;101757.44;2394236;28;46484;-84
2022/05/12 04:46:38;;;;;;;;;2.00;2.00;;;;;17.73;50.82;101763.59;2403099;28;45428;-84
2022/05/12 04:47:49;;;;;;;;;3.00;2.00;;;;;17.75;51.14;101769.69;2385377;28;47372;-89
2022/05/12 04:49:01;;;;;;;;;2.00;2.00;;;;;17.75;51.29;101772.34;2381294;28;45245;-88
2022/05/12 04:50:15;;;;;;;;;1.25;1.25;;;;;17.72;51.38;101764.53;2385893;28;48306;-87
2022/05/12 04:51:26;;;;;;;;;6.25;2.25;;;;;17.71;51.19;101762.81;2386584;28;45334;-84
2022/05/12 04:52:37;;;;;;;;;2.75;1.50;;;;;17.72;51.50;101761.88;2391486;28;45465;-83
2022/05/12 04:53:47;;;;;;;;;4.50;1.00;;;;;17.72;51.23;101769.84;2402469;28;45271;-83
2022/05/12 04:54:58;;;;;;;;;4.00;1.75;;;;;17.69;51.47;101762.03;2397939;28;45283;-82
2022/05/12 04:56:08;;;;;;;;;3.75;2.75;;;;;17.70;51.21;101769.06;2393674;28;45208;-82
2022/05/12 04:57:19;;;;;;;;;1.50;1.50;;;;;17.68;51.28;101770.91;2393687;28;45251;-85
2022/05/12 04:58:30;;;;;;;;;2.50;2.50;;;;;17.64;51.58;101785.28;2383525;28;45595;-83
2022/05/12 04:59:40;;;;;;;;;1.75;1.75;;;;;17.62;51.48;101784.50;2391741;28;46400;-84
2022/05/12 05:00:50;;;;;;;;;2.00;2.00;;;;;17.59;51.62;101774.88;2392945;28;44698;-83
2022/05/12 05:02:01;;;;;;;;;2.00;1.50;;;;;17.58;51.31;101777.63;2395784;28;45975;-83
2022/05/12 05:03:12;;;;;;;;;3.50;2.00;;;;;17.58;51.76;101777.63;2395090;28;45249;-83
2022/05/12 05:04:23;;;;;;;;;4.25;1.75;;;;;17.58;52.07;101775.78;2388347;28;46092;-82
2022/05/12 05:05:34;;;;;;;;;3.75;2.00;;;;;17.59;52.08;101777.53;2392776;28;45301;-82
2022/05/12 05:06:45;;;;;;;;;2.75;1.00;;;;;17.58;51.76;101772.31;2399586;28;45402;-83
2022/05/12 05:07:55;;;;;;;;;1.50;1.50;;;;;17.57;51.72;101774.09;2401485;28;45453;-82
2022/05/12 05:09:06;;;;;;;;;1.75;1.75;;;;;17.56;51.60;101777.66;2399579;28;45358;-82
2022/05/12 05:10:16;;;;;;;;;2.00;2.00;;;;;17.56;51.85;101777.66;2400118;28;45464;-82
2022/05/12 05:11:27;;;;;;;;;6.25;2.75;;;;;17.57;51.77;101775.88;2400364;28;47577;-82
2022/05/12 05:12:39;;;;;;;;;1.25;1.25;;;;;17.56;51.97;101772.34;2400475;28;44672;-82
2022/05/12 05:13:49;;;;;;;;;3.50;3.00;;;;;17.57;51.77;101774.09;2401422;28;45625;-82
2022/05/12 05:15:00;;;;;;;;;2.00;2.00;;;;;17.56;51.81;101780.31;2400776;28;45425;-83
2022/05/12 05:16:10;;;;;;;;;5.00;2.00;;;;;17.59;52.10;101781.97;2392064;28;47021;-82
2022/05/12 05:17:22;;;;;;;;;2.00;2.00;;;;;17.60;51.98;101783.72;2394733;28;45215;-81
2022/05/12 05:18:33;;;;;;;;;2.00;2.00;;;;;17.61;52.04;101786.28;2399009;28;46370;-81
2022/05/12 05:19:43;;;;;;;;;7.00;1.75;;;;;17.61;51.90;101788.09;2400106;28;45246;-81
2022/05/12 05:20:54;;;;;;;;;4.75;1.00;;;;;17.61;52.08;101785.44;2401656;28;45527;-81
2022/05/12 05:22:05;;;;;;;;;1.25;1.00;;;;;17.57;52.01;101787.38;2400264;28;45473;-81
2022/05/12 05:23:16;;;;;;;;;2.75;2.25;;;;;17.56;52.15;101787.47;2401076;28;45515;-81
2022/05/12 05:24:26;;;;;;;;;5.50;2.50;;;;;17.54;52.19;101790.16;2398197;28;45318;-81
2022/05/12 05:25:36;;;;;;;;;2.00;2.00;;;;;17.51;51.86;101788.50;2397548;28;46202;-82
2022/05/12 05:26:47;;;;;;;;;2.00;1.00;;;;;17.52;52.01;101797.34;2399463;28;44743;-82
2022/05/12 05:27:57;;;;;;;;;3.00;2.00;;;;;17.50;52.18;101796.56;2399142;28;45416;-82
2022/05/12 05:29:07;;;;;;;;;3.00;3.00;;;;;17.53;52.09;101799.09;2389266;28;44831;-82
2022/05/12 05:30:21;;;;;;;;;4.00;3.00;;;;;17.51;52.23;101798.28;2394870;28;45692;-82
2022/05/12 05:31:32;;;;;;;;;2.25;1.00;;;;;17.50;52.09;101794.78;2400555;28;45587;-82
2022/05/12 05:32:43;;;;;;;;;3.75;2.25;;;;;17.52;52.44;101802.69;2401038;28;45394;-83
2022/05/12 05:33:54;;;;;;;;;2.00;2.00;;;;;17.51;52.16;101799.16;2394221;28;44760;-82
2022/05/12 05:35:06;;;;;;;;;0.00;0.00;;;;;17.52;52.46;101811.50;2394148;28;46296;-82
2022/05/12 05:36:16;;;;;;;;;2.25;2.00;;;;;17.54;52.64;101807.00;2391035;28;45457;-82